Terminal Aerodrome Forecast
Issued by NWS

Home | Current Version | Previous Version | Text Only | Print | Product List | Glossary On
Versions: 1 2 3 4 5 6 7 8 9 10 11 12 13 14 15 16 17 18 19 20
933
FTUS43 KFGF 142336
TAFDVL
TAF
KDVL 142336Z 1500/1524 27007KT P6SM OVC010
     FM150700 27008KT 5SM BR OVC015
     FM151100 28009KT 2SM BR OVC015
     FM151600 27008KT P6SM BKN030
     FM151900 25007KT P6SM BKN040=

USA.gov is the U.S. government's official web portal to all federal, state and local government web resources and services.